sensor_id;sensor_type;location;lat;lon;timestamp;pressure;altitude;pressure_sealevel;temperature;humidity
50123;BME280;36021;48.670;6.184;2022-08-03T00:02:15;98968.81;;;26.23;100.00
50123;BME280;36021;48.670;6.184;2022-08-03T00:04:41;98975.16;;;26.02;100.00
50123;BME280;36021;48.670;6.184;2022-08-03T00:07:06;98973.47;;;25.76;100.00
50123;BME280;36021;48.670;6.184;2022-08-03T00:09:33;98972.31;;;25.91;100.00
50123;BME280;36021;48.670;6.184;2022-08-03T00:12:00;98973.56;;;25.98;100.00
50123;BME280;36021;48.670;6.184;2022-08-03T00:14:26;98973.94;;;25.92;100.00
50123;BME280;36021;48.670;6.184;2022-08-03T00:16:51;98973.56;;;25.98;100.00
50123;BME280;36021;48.670;6.184;2022-08-03T00:19:18;98975.16;;;25.99;100.00
50123;BME280;36021;48.670;6.184;2022-08-03T00:21:44;98975.13;;;25.95;100.00
50123;BME280;36021;48.670;6.184;2022-08-03T00:24:09;98972.75;;;26.01;100.00
50123;BME280;36021;48.670;6.184;2022-08-03T00:26:35;98971.53;;;26.02;100.00
50123;BME280;36021;48.670;6.184;2022-08-03T00:29:00;98968.28;;;25.96;100.00
50123;BME280;36021;48.670;6.184;2022-08-03T00:31:26;98971.13;;;25.96;100.00
50123;BME280;36021;48.670;6.184;2022-08-03T00:33:53;98975.13;;;25.91;100.00
50123;BME280;36021;48.670;6.184;2022-08-03T00:36:18;98968.63;;;25.73;100.00
50123;BME280;36021;48.670;6.184;2022-08-03T00:38:44;98966.16;;;25.61;100.00
50123;BME280;36021;48.670;6.184;2022-08-03T00:41:10;98966.56;;;25.63;100.00
50123;BME280;36021;48.670;6.184;2022-08-03T00:43:35;98958.84;;;25.53;100.00
50123;BME280;36021;48.670;6.184;2022-08-03T00:46:01;98959.63;;;25.50;100.00
50123;BME280;36021;48.670;6.184;2022-08-03T00:48:26;98959.97;;;25.42;100.00
50123;BME280;36021;48.670;6.184;2022-08-03T00:50:53;98954.19;;;25.20;100.00
50123;BME280;36021;48.670;6.184;2022-08-03T00:53:19;98950.91;;;25.11;100.00
50123;BME280;36021;48.670;6.184;2022-08-03T00:55:45;98944.91;;;25.20;100.00
50123;BME280;36021;48.670;6.184;2022-08-03T00:58:11;98942.16;;;25.30;100.00
50123;BME280;36021;48.670;6.184;2022-08-03T01:00:38;98947.03;;;25.37;100.00
50123;BME280;36021;48.670;6.184;2022-08-03T01:03:09;98938.59;;;25.44;100.00
50123;BME280;36021;48.670;6.184;2022-08-03T01:08:27;98935.38;;;25.49;100.00
50123;BME280;36021;48.670;6.184;2022-08-03T01:11:11;98937.03;;;25.50;100.00
50123;BME280;36021;48.670;6.184;2022-08-03T01:16:45;98936.88;;;25.18;100.00
50123;BME280;36021;48.670;6.184;2022-08-03T01:22:17;98939.44;;;24.83;100.00
50123;BME280;36021;48.670;6.184;2022-08-03T01:30:12;98933.09;;;24.49;100.00
50123;BME280;36021;48.670;6.184;2022-08-03T01:33:01;98929.13;;;24.54;100.00
50123;BME280;36021;48.670;6.184;2022-08-03T01:35:47;98924.72;;;24.56;100.00
50123;BME280;36021;48.670;6.184;2022-08-03T01:38:40;98926.75;;;24.59;100.00
50123;BME280;36021;48.670;6.184;2022-08-03T01:41:12;98930.59;;;24.37;100.00
50123;BME280;36021;48.670;6.184;2022-08-03T01:43:40;98932.00;;;24.17;100.00
50123;BME280;36021;48.670;6.184;2022-08-03T01:46:08;98927.44;;;24.09;100.00
50123;BME280;36021;48.670;6.184;2022-08-03T01:48:36;98928.00;;;24.18;100.00
50123;BME280;36021;48.670;6.184;2022-08-03T01:51:05;98920.81;;;24.24;100.00
50123;BME280;36021;48.670;6.184;2022-08-03T01:53:32;98928.88;;;24.29;100.00
50123;BME280;36021;48.670;6.184;2022-08-03T01:55:59;98921.34;;;24.40;100.00
50123;BME280;36021;48.670;6.184;2022-08-03T01:58:29;98918.53;;;24.40;100.00
50123;BME280;36021;48.670;6.184;2022-08-03T02:00:56;98920.91;;;24.38;100.00
50123;BME280;36021;48.670;6.184;2022-08-03T02:03:25;98923.25;;;24.29;100.00
50123;BME280;36021;48.670;6.184;2022-08-03T02:05:54;98917.59;;;24.25;100.00
50123;BME280;36021;48.670;6.184;2022-08-03T02:08:21;98925.28;;;24.32;100.00
50123;BME280;36021;48.670;6.184;2022-08-03T02:10:49;98924.94;;;24.37;100.00
50123;BME280;36021;48.670;6.184;2022-08-03T02:13:16;98925.00;;;24.41;100.00
50123;BME280;36021;48.670;6.184;2022-08-03T02:15:45;98923.69;;;24.31;100.00
50123;BME280;36021;48.670;6.184;2022-08-03T02:18:12;98928.03;;;24.25;100.00
50123;BME280;36021;48.670;6.184;2022-08-03T02:20:40;98921.50;;;24.14;100.00
50123;BME280;36021;48.670;6.184;2022-08-03T02:23:06;98928.63;;;24.04;100.00
50123;BME280;36021;48.670;6.184;2022-08-03T02:25:38;98928.34;;;23.79;100.00
50123;BME280;36021;48.670;6.184;2022-08-03T02:28:10;98920.75;;;23.83;100.00
50123;BME280;36021;48.670;6.184;2022-08-03T02:30:38;98921.69;;;23.95;100.00
50123;BME280;36021;48.670;6.184;2022-08-03T02:33:10;98922.91;;;23.97;100.00
50123;BME280;36021;48.670;6.184;2022-08-03T02:35:37;98921.31;;;24.00;100.00
50123;BME280;36021;48.670;6.184;2022-08-03T02:38:06;98920.47;;;23.96;100.00
50123;BME280;36021;48.670;6.184;2022-08-03T02:40:33;98919.66;;;23.92;100.00
50123;BME280;36021;48.670;6.184;2022-08-03T02:43:07;98916.22;;;23.72;100.00
50123;BME280;36021;48.670;6.184;2022-08-03T02:45:35;98920.00;;;23.53;100.00
50123;BME280;36021;48.670;6.184;2022-08-03T02:48:03;98917.91;;;23.47;100.00
50123;BME280;36021;48.670;6.184;2022-08-03T02:50:29;98903.47;;;23.48;100.00
50123;BME280;36021;48.670;6.184;2022-08-03T02:52:57;98910.66;;;23.46;100.00
50123;BME280;36021;48.670;6.184;2022-08-03T02:55:25;98909.34;;;23.40;100.00
50123;BME280;36021;48.670;6.184;2022-08-03T02:57:54;98909.31;;;23.36;100.00
50123;BME280;36021;48.670;6.184;2022-08-03T03:00:20;98903.50;;;23.22;100.00
50123;BME280;36021;48.670;6.184;2022-08-03T03:02:47;98904.97;;;23.12;100.00
50123;BME280;36021;48.670;6.184;2022-08-03T03:05:13;98905.25;;;23.04;100.00
50123;BME280;36021;48.670;6.184;2022-08-03T03:07:40;98910.44;;;23.02;100.00
50123;BME280;36021;48.670;6.184;2022-08-03T03:10:07;98903.94;;;22.98;100.00
50123;BME280;36021;48.670;6.184;2022-08-03T03:12:36;98905.59;;;22.99;100.00
50123;BME280;36021;48.670;6.184;2022-08-03T03:15:04;98904.06;;;23.05;100.00
50123;BME280;36021;48.670;6.184;2022-08-03T03:17:33;98909.25;;;23.03;100.00
50123;BME280;36021;48.670;6.184;2022-08-03T03:20:00;98904.34;;;22.96;100.00
50123;BME280;36021;48.670;6.184;2022-08-03T03:22:27;98908.06;;;23.04;100.00
50123;BME280;36021;48.670;6.184;2022-08-03T03:24:55;98905.88;;;23.20;100.00
50123;BME280;36021;48.670;6.184;2022-08-03T03:27:21;98904.78;;;23.28;100.00
50123;BME280;36021;48.670;6.184;2022-08-03T03:29:47;98910.00;;;23.26;100.00
50123;BME280;36021;48.670;6.184;2022-08-03T03:32:17;98907.16;;;23.26;100.00
50123;BME280;36021;48.670;6.184;2022-08-03T03:34:43;98918.16;;;23.08;100.00
50123;BME280;36021;48.670;6.184;2022-08-03T03:37:09;98915.34;;;23.08;100.00
50123;BME280;36021;48.670;6.184;2022-08-03T03:39:35;98924.91;;;23.04;100.00
50123;BME280;36021;48.670;6.184;2022-08-03T03:42:01;98929.66;;;22.96;100.00
50123;BME280;36021;48.670;6.184;2022-08-03T03:44:28;98926.91;;;22.73;100.00
50123;BME280;36021;48.670;6.184;2022-08-03T03:46:55;98932.41;;;22.66;100.00
50123;BME280;36021;48.670;6.184;2022-08-03T03:49:21;98927.75;;;22.55;100.00
50123;BME280;36021;48.670;6.184;2022-08-03T03:51:47;98926.84;;;22.47;100.00
50123;BME280;36021;48.670;6.184;2022-08-03T03:54:13;98928.09;;;22.50;100.00
50123;BME280;36021;48.670;6.184;2022-08-03T03:56:39;98933.56;;;22.43;100.00
50123;BME280;36021;48.670;6.184;2022-08-03T03:59:05;98920.22;;;22.36;100.00
50123;BME280;36021;48.670;6.184;2022-08-03T04:01:31;98923.22;;;22.24;100.00
50123;BME280;36021;48.670;6.184;2022-08-03T04:03:57;98925.59;;;22.22;100.00
50123;BME280;36021;48.670;6.184;2022-08-03T04:06:43;98929.97;;;22.19;100.00
50123;BME280;36021;48.670;6.184;2022-08-03T04:09:27;98927.41;;;22.11;100.00
50123;BME280;36021;48.670;6.184;2022-08-03T04:12:12;98920.16;;;22.10;100.00
50123;BME280;36021;48.670;6.184;2022-08-03T04:14:39;98930.97;;;22.08;100.00
50123;BME280;36021;48.670;6.184;2022-08-03T04:17:07;98926.53;;;22.07;100.00
50123;BME280;36021;48.670;6.184;2022-08-03T04:19:44;98931.13;;;21.96;100.00
50123;BME280;36021;48.670;6.184;2022-08-03T04:22:14;98930.25;;;21.92;100.00
50123;BME280;36021;48.670;6.184;2022-08-03T04:24:56;98930.25;;;21.92;100.00
50123;BME280;36021;48.670;6.184;2022-08-03T04:27:27;98931.34;;;21.87;100.00
50123;BME280;36021;48.670;6.184;2022-08-03T04:29:56;98932.63;;;21.90;100.00
50123;BME280;36021;48.670;6.184;2022-08-03T04:32:23;98931.13;;;21.96;100.00
50123;BME280;36021;48.670;6.184;2022-08-03T04:34:53;98932.97;;;21.88;100.00
50123;BME280;36021;48.670;6.184;2022-08-03T04:37:29;98939.41;;;21.89;100.00
50123;BME280;36021;48.670;6.184;2022-08-03T04:39:57;98928.84;;;21.82;100.00
50123;BME280;36021;48.670;6.184;2022-08-03T04:42:26;98930.84;;;21.81;100.00
50123;BME280;36021;48.670;6.184;2022-08-03T04:44:54;98941.03;;;21.70;100.00
50123;BME280;36021;48.670;6.184;2022-08-03T04:47:20;98937.94;;;21.75;100.00
50123;BME280;36021;48.670;6.184;2022-08-03T04:49:47;98943.25;;;21.80;100.00
50123;BME280;36021;48.670;6.184;2022-08-03T04:52:13;98936.47;;;21.81;100.00
50123;BME280;36021;48.670;6.184;2022-08-03T04:54:43;98936.16;;;21.67;100.00
50123;BME280;36021;48.670;6.184;2022-08-03T04:57:10;98940.44;;;21.80;100.00
50123;BME280;36021;48.670;6.184;2022-08-03T04:59:38;98946.94;;;21.85;100.00
50123;BME280;36021;48.670;6.184;2022-08-03T05:02:04;98948.78;;;21.96;100.00
50123;BME280;36021;48.670;6.184;2022-08-03T05:04:31;98939.38;;;22.08;100.00
50123;BME280;36021;48.670;6.184;2022-08-03T05:06:57;98945.25;;;22.22;100.00
50123;BME280;36021;48.670;6.184;2022-08-03T05:09:22;98946.88;;;22.23;100.00
50123;BME280;36021;48.670;6.184;2022-08-03T05:11:48;98944.63;;;22.32;100.00
50123;BME280;36021;48.670;6.184;2022-08-03T05:14:13;98952.88;;;22.44;100.00
50123;BME280;36021;48.670;6.184;2022-08-03T05:16:39;98952.88;;;22.44;100.00
50123;BME280;36021;48.670;6.184;2022-08-03T05:19:07;98941.72;;;22.48;100.00
50123;BME280;36021;48.670;6.184;2022-08-03T05:21:32;98942.19;;;22.53;100.00
50123;BME280;36021;48.670;6.184;2022-08-03T05:23:58;98948.00;;;22.41;100.00
50123;BME280;36021;48.670;6.184;2022-08-03T05:26:24;98952.13;;;22.47;100.00
50123;BME280;36021;48.670;6.184;2022-08-03T05:28:50;98945.53;;;22.62;100.00
50123;BME280;36021;48.670;6.184;2022-08-03T05:31:17;98950.94;;;22.71;100.00
50123;BME280;36021;48.670;6.184;2022-08-03T05:33:44;98953.50;;;22.79;100.00
50123;BME280;36021;48.670;6.184;2022-08-03T05:36:09;98952.72;;;22.82;100.00
50123;BME280;36021;48.670;6.184;2022-08-03T05:38:35;98953.66;;;22.90;100.00
50123;BME280;36021;48.670;6.184;2022-08-03T05:41:02;98955.38;;;22.98;100.00
50123;BME280;36021;48.670;6.184;2022-08-03T05:43:28;98951.44;;;23.03;100.00
50123;BME280;36021;48.670;6.184;2022-08-03T05:45:54;98964.19;;;22.97;100.00
50123;BME280;36021;48.670;6.184;2022-08-03T05:48:19;98962.69;;;23.03;100.00
50123;BME280;36021;48.670;6.184;2022-08-03T05:50:45;98967.09;;;23.04;100.00
50123;BME280;36021;48.670;6.184;2022-08-03T05:53:11;98976.28;;;23.01;100.00
50123;BME280;36021;48.670;6.184;2022-08-03T05:55:36;98964.75;;;23.06;100.00
50123;BME280;36021;48.670;6.184;2022-08-03T05:58:04;98973.38;;;23.20;100.00
50123;BME280;36021;48.670;6.184;2022-08-03T06:00:30;98974.38;;;23.34;100.00
50123;BME280;36021;48.670;6.184;2022-08-03T06:02:55;98972.06;;;23.40;100.00
50123;BME280;36021;48.670;6.184;2022-08-03T06:05:21;98967.38;;;23.48;100.00
50123;BME280;36021;48.670;6.184;2022-08-03T06:07:47;98976.84;;;23.36;100.00
50123;BME280;36021;48.670;6.184;2022-08-03T06:10:12;98971.22;;;23.40;100.00
50123;BME280;36021;48.670;6.184;2022-08-03T06:12:38;98967.25;;;23.41;100.00
50123;BME280;36021;48.670;6.184;2022-08-03T06:15:06;98960.97;;;23.51;100.00
50123;BME280;36021;48.670;6.184;2022-08-03T06:17:33;98964.25;;;23.56;100.00
50123;BME280;36021;48.670;6.184;2022-08-03T06:19:58;98958.00;;;23.70;100.00
50123;BME280;36021;48.670;6.184;2022-08-03T06:22:24;98958.72;;;23.63;100.00
50123;BME280;36021;48.670;6.184;2022-08-03T06:24:50;98955.47;;;23.61;100.00
50123;BME280;36021;48.670;6.184;2022-08-03T06:27:15;98961.47;;;23.60;100.00
50123;BME280;36021;48.670;6.184;2022-08-03T06:29:42;98960.25;;;23.57;100.00
50123;BME280;36021;48.670;6.184;2022-08-03T06:32:08;98967.59;;;23.65;100.00
50123;BME280;36021;48.670;6.184;2022-08-03T06:34:33;98966.56;;;23.80;100.00
50123;BME280;36021;48.670;6.184;2022-08-03T06:36:59;98967.56;;;23.99;100.00
50123;BME280;36021;48.670;6.184;2022-08-03T06:39:26;98968.13;;;24.11;100.00
50123;BME280;36021;48.670;6.184;2022-08-03T06:41:51;98971.88;;;24.22;100.00
50123;BME280;36021;48.670;6.184;2022-08-03T06:44:17;98965.09;;;24.27;100.00
50123;BME280;36021;48.670;6.184;2022-08-03T06:46:43;98961.97;;;24.35;100.00
50123;BME280;36021;48.670;6.184;2022-08-03T06:49:09;98966.00;;;24.38;100.00
50123;BME280;36021;48.670;6.184;2022-08-03T06:51:35;98964.84;;;24.43;100.00
50123;BME280;36021;48.670;6.184;2022-08-03T06:54:00;98966.84;;;24.42;100.00
50123;BME280;36021;48.670;6.184;2022-08-03T06:56:28;98971.84;;;24.59;100.00
50123;BME280;36021;48.670;6.184;2022-08-03T06:58:53;98971.13;;;24.69;100.00
50123;BME280;36021;48.670;6.184;2022-08-03T07:01:22;98973.16;;;24.72;100.00
50123;BME280;36021;48.670;6.184;2022-08-03T07:03:48;98977.59;;;24.70;100.00
50123;BME280;36021;48.670;6.184;2022-08-03T07:06:14;98971.28;;;24.87;100.00
50123;BME280;36021;48.670;6.184;2022-08-03T07:08:39;98981.03;;;24.93;100.00
50123;BME280;36021;48.670;6.184;2022-08-03T07:11:05;98969.78;;;25.00;100.00
50123;BME280;36021;48.670;6.184;2022-08-03T07:13:32;98970.63;;;25.08;100.00
50123;BME280;36021;48.670;6.184;2022-08-03T07:15:58;98972.31;;;25.16;100.00
50123;BME280;36021;48.670;6.184;2022-08-03T07:18:23;98971.97;;;25.28;100.00
50123;BME280;36021;48.670;6.184;2022-08-03T07:20:50;98969.63;;;25.40;100.00
50123;BME280;36021;48.670;6.184;2022-08-03T07:23:16;98971.69;;;25.47;100.00
50123;BME280;36021;48.670;6.184;2022-08-03T07:25:42;98976.22;;;25.55;100.00
50123;BME280;36021;48.670;6.184;2022-08-03T07:28:07;98970.19;;;25.64;100.00
50123;BME280;36021;48.670;6.184;2022-08-03T07:30:35;98966.97;;;25.65;100.00
50123;BME280;36021;48.670;6.184;2022-08-03T07:33:01;98972.66;;;25.76;100.00
50123;BME280;36021;48.670;6.184;2022-08-03T07:35:26;98970.28;;;25.85;100.00
50123;BME280;36021;48.670;6.184;2022-08-03T07:37:52;98969.47;;;25.91;100.00
50123;BME280;36021;48.670;6.184;2022-08-03T07:40:18;98967.50;;;26.03;100.00
50123;BME280;36021;48.670;6.184;2022-08-03T07:42:44;98968.34;;;26.14;100.00
50123;BME280;36021;48.670;6.184;2022-08-03T07:45:10;98965.09;;;26.12;100.00
50123;BME280;36021;48.670;6.184;2022-08-03T07:47:35;98969.94;;;26.11;100.00
50123;BME280;36021;48.670;6.184;2022-08-03T07:50:03;98975.25;;;26.16;100.00
50123;BME280;36021;48.670;6.184;2022-08-03T07:52:28;98968.81;;;26.23;100.00
50123;BME280;36021;48.670;6.184;2022-08-03T07:55:12;98969.66;;;26.34;100.00
50123;BME280;36021;48.670;6.184;2022-08-03T07:57:39;98974.50;;;26.37;100.00
50123;BME280;36021;48.670;6.184;2022-08-03T08:00:17;98970.44;;;26.49;100.00
50123;BME280;36021;48.670;6.184;2022-08-03T08:02:43;98969.25;;;26.53;100.00
50123;BME280;36021;48.670;6.184;2022-08-03T08:05:09;98973.69;;;26.65;100.00
50123;BME280;36021;48.670;6.184;2022-08-03T08:07:36;98973.69;;;26.68;100.00
50123;BME280;36021;48.670;6.184;2022-08-03T08:10:04;98972.88;;;26.71;100.00
50123;BME280;36021;48.670;6.184;2022-08-03T08:12:30;98973.75;;;26.82;100.00
50123;BME280;36021;48.670;6.184;2022-08-03T08:14:55;98973.75;;;26.89;100.00
50123;BME280;36021;48.670;6.184;2022-08-03T08:17:21;98965.22;;;26.97;100.00
50123;BME280;36021;48.670;6.184;2022-08-03T08:19:49;98963.63;;;26.99;100.00
50123;BME280;36021;48.670;6.184;2022-08-03T08:22:15;98965.66;;;27.06;100.00
50123;BME280;36021;48.670;6.184;2022-08-03T08:24:40;98967.66;;;27.12;100.00
50123;BME280;36021;48.670;6.184;2022-08-03T08:27:08;98974.50;;;27.22;100.00
50123;BME280;36021;48.670;6.184;2022-08-03T08:29:33;98967.22;;;27.31;100.00
50123;BME280;36021;48.670;6.184;2022-08-03T08:31:59;98978.09;;;27.40;100.00
50123;BME280;36021;48.670;6.184;2022-08-03T08:34:24;98971.63;;;27.50;100.00
50123;BME280;36021;48.670;6.184;2022-08-03T08:36:50;98973.63;;;27.60;100.00
50123;BME280;36021;48.670;6.184;2022-08-03T08:39:16;98974.00;;;27.66;100.00
50123;BME280;36021;48.670;6.184;2022-08-03T08:41:41;98972.34;;;27.72;100.00
50123;BME280;36021;48.670;6.184;2022-08-03T08:44:07;98975.56;;;27.81;100.00
50123;BME280;36021;48.670;6.184;2022-08-03T08:46:37;98972.72;;;27.84;100.00
50123;BME280;36021;48.670;6.184;2022-08-03T08:49:03;98963.75;;;27.97;100.00
50123;BME280;36021;48.670;6.184;2022-08-03T08:51:30;98965.75;;;28.07;100.00
50123;BME280;36021;48.670;6.184;2022-08-03T08:54:01;98964.44;;;28.22;100.00
50123;BME280;36021;48.670;6.184;2022-08-03T08:56:31;98966.88;;;28.27;100.00
50123;BME280;36021;48.670;6.184;2022-08-03T08:58:59;98968.41;;;28.35;100.00
50123;BME280;36021;48.670;6.184;2022-08-03T09:01:26;98964.31;;;28.43;100.00
50123;BME280;36021;48.670;6.184;2022-08-03T09:03:52;98964.25;;;28.50;100.00
50123;BME280;36021;48.670;6.184;2022-08-03T09:06:19;98959.38;;;28.54;100.00
50123;BME280;36021;48.670;6.184;2022-08-03T09:08:45;98960.50;;;28.64;100.00
50123;BME280;36021;48.670;6.184;2022-08-03T09:11:11;98961.69;;;28.70;100.00
50123;BME280;36021;48.670;6.184;2022-08-03T09:13:37;98956.78;;;28.77;100.00
50123;BME280;36021;48.670;6.184;2022-08-03T09:16:18;98955.94;;;28.80;100.00
50123;BME280;36021;48.670;6.184;2022-08-03T09:18:49;98962.38;;;28.88;100.00
50123;BME280;36021;48.670;6.184;2022-08-03T09:21:20;98958.28;;;28.92;100.00
50123;BME280;36021;48.670;6.184;2022-08-03T09:23:54;98961.44;;;29.02;100.00
50123;BME280;36021;48.670;6.184;2022-08-03T09:26:27;98957.31;;;29.06;100.00
50123;BME280;36021;48.670;6.184;2022-08-03T09:29:02;98956.97;;;29.01;100.00
50123;BME280;36021;48.670;6.184;2022-08-03T09:31:37;98958.97;;;29.04;100.00
50123;BME280;36021;48.670;6.184;2022-08-03T09:34:05;98955.59;;;29.16;100.00
50123;BME280;36021;48.670;6.184;2022-08-03T09:39:21;98953.72;;;29.43;100.00
50123;BME280;36021;48.670;6.184;2022-08-03T09:42:03;98947.97;;;29.50;100.00
50123;BME280;36021;48.670;6.184;2022-08-03T09:44:34;98935.59;;;29.67;100.00
50123;BME280;36021;48.670;6.184;2022-08-03T09:47:00;98939.47;;;29.80;100.00
50123;BME280;36021;48.670;6.184;2022-08-03T09:49:25;98940.94;;;29.95;100.00
50123;BME280;36021;48.670;6.184;2022-08-03T09:51:52;98939.25;;;29.98;100.00
50123;BME280;36021;48.670;6.184;2022-08-03T09:54:31;98938.56;;;29.90;100.00
50123;BME280;36021;48.670;6.184;2022-08-03T09:56:57;98938.44;;;29.97;100.00
50123;BME280;36021;48.670;6.184;2022-08-03T09:59:27;98932.75;;;29.97;100.00
50123;BME280;36021;48.670;6.184;2022-08-03T10:01:54;98933.16;;;30.00;100.00
50123;BME280;36021;48.670;6.184;2022-08-03T10:04:20;98931.75;;;30.11;100.00
50123;BME280;36021;48.670;6.184;2022-08-03T10:07:08;98925.72;;;30.36;100.00
50123;BME280;36021;48.670;6.184;2022-08-03T10:10:00;98922.34;;;30.44;100.00
50123;BME280;36021;48.670;6.184;2022-08-03T10:12:28;98926.25;;;30.54;100.00
50123;BME280;36021;48.670;6.184;2022-08-03T10:14:54;98917.38;;;30.52;100.00
50123;BME280;36021;48.670;6.184;2022-08-03T10:17:21;98921.28;;;30.62;100.00
50123;BME280;36021;48.670;6.184;2022-08-03T10:19:48;98922.06;;;30.62;100.00
50123;BME280;36021;48.670;6.184;2022-08-03T10:22:15;98913.34;;;30.50;100.00
50123;BME280;36021;48.670;6.184;2022-08-03T10:25:24;98907.22;;;30.51;100.00
50123;BME280;36021;48.670;6.184;2022-08-03T10:27:33;98905.47;;;30.57;100.00
50123;BME280;36021;48.670;6.184;2022-08-03T10:30:01;98910.81;;;30.78;100.00
50123;BME280;36021;48.670;6.184;2022-08-03T10:32:40;98905.88;;;30.82;100.00
50123;BME280;36021;48.670;6.184;2022-08-03T10:35:13;98912.22;;;30.90;100.00
50123;BME280;36021;48.670;6.184;2022-08-03T10:37:41;98904.03;;;30.95;100.00
50123;BME280;36021;48.670;6.184;2022-08-03T10:40:15;98894.47;;;31.06;100.00
50123;BME280;36021;48.670;6.184;2022-08-03T10:42:46;98893.59;;;31.09;100.00
50123;BME280;36021;48.670;6.184;2022-08-03T10:45:25;98886.81;;;31.03;100.00
50123;BME280;36021;48.670;6.184;2022-08-03T10:47:52;98882.38;;;31.21;100.00
50123;BME280;36021;48.670;6.184;2022-08-03T10:50:22;98869.66;;;31.26;100.00
50123;BME280;36021;48.670;6.184;2022-08-03T11:01:10;98868.41;;;31.86;100.00
50123;BME280;36021;48.670;6.184;2022-08-03T11:08:48;98858.22;;;32.05;100.00
50123;BME280;36021;48.670;6.184;2022-08-03T11:14:17;98853.09;;;32.16;100.00
50123;BME280;36021;48.670;6.184;2022-08-03T11:16:48;98857.75;;;32.26;100.00
50123;BME280;36021;48.670;6.184;2022-08-03T11:19:19;98856.94;;;32.25;100.00
50123;BME280;36021;48.670;6.184;2022-08-03T11:35:08;98849.03;;;32.65;100.00
50123;BME280;36021;48.670;6.184;2022-08-03T11:37:34;98849.19;;;32.74;100.00
50123;BME280;36021;48.670;6.184;2022-08-03T11:40:00;98849.50;;;32.92;100.00
50123;BME280;36021;48.670;6.184;2022-08-03T11:44:58;98850.84;;;32.88;100.00
50123;BME280;36021;48.670;6.184;2022-08-03T11:47:27;98852.03;;;32.42;100.00
50123;BME280;36021;48.670;6.184;2022-08-03T11:49:56;98843.75;;;32.64;100.00
50123;BME280;36021;48.670;6.184;2022-08-03T11:52:24;98838.81;;;32.80;100.00
50123;BME280;36021;48.670;6.184;2022-08-03T11:54:51;98841.44;;;32.59;100.00
50123;BME280;36021;48.670;6.184;2022-08-03T11:57:29;98842.66;;;32.74;100.00
50123;BME280;36021;48.670;6.184;2022-08-03T11:59:55;98832.34;;;32.92;100.00
50123;BME280;36021;48.670;6.184;2022-08-03T12:02:21;98836.97;;;33.02;100.00
50123;BME280;36021;48.670;6.184;2022-08-03T12:04:55;98835.38;;;33.01;100.00
50123;BME280;36021;48.670;6.184;2022-08-03T12:07:28;98834.66;;;33.14;100.00
50123;BME280;36021;48.670;6.184;2022-08-03T12:10:12;98840.22;;;33.33;100.00
50123;BME280;36021;48.670;6.184;2022-08-03T12:12:39;98838.09;;;33.50;100.00
50123;BME280;36021;48.670;6.184;2022-08-03T12:15:06;98830.81;;;33.74;100.00
50123;BME280;36021;48.670;6.184;2022-08-03T12:17:33;98834.28;;;33.94;100.00
50123;BME280;36021;48.670;6.184;2022-08-03T12:19:59;98833.34;;;34.10;97.88
50123;BME280;36021;48.670;6.184;2022-08-03T12:22:39;98835.69;;;34.28;97.77
50123;BME280;36021;48.670;6.184;2022-08-03T12:25:06;98833.94;;;34.05;94.61
50123;BME280;36021;48.670;6.184;2022-08-03T12:27:33;98833.94;;;33.92;97.46
50123;BME280;36021;48.670;6.184;2022-08-03T12:30:01;98834.56;;;34.13;97.88
50123;BME280;36021;48.670;6.184;2022-08-03T12:32:27;98827.78;;;34.32;95.03
50123;BME280;36021;48.670;6.184;2022-08-03T12:34:54;98825.34;;;34.43;98.14
50123;BME280;36021;48.670;6.184;2022-08-03T12:37:24;98825.91;;;34.63;95.76
50123;BME280;36021;48.670;6.184;2022-08-03T12:39:58;98814.38;;;34.03;96.31
50123;BME280;36021;48.670;6.184;2022-08-03T12:42:36;98817.13;;;34.32;95.23
50123;BME280;36021;48.670;6.184;2022-08-03T12:45:18;98811.09;;;34.77;92.94
50123;BME280;36021;48.670;6.184;2022-08-03T12:47:59;98812.13;;;35.05;91.82
50123;BME280;36021;48.670;6.184;2022-08-03T12:50:34;98819.34;;;35.10;89.22
50123;BME280;36021;48.670;6.184;2022-08-03T12:53:02;98810.41;;;35.51;87.72
50123;BME280;36021;48.670;6.184;2022-08-03T12:55:30;98803.50;;;35.61;86.88
50123;BME280;36021;48.670;6.184;2022-08-03T12:57:59;98801.81;;;36.52;86.70
50123;BME280;36021;48.670;6.184;2022-08-03T13:00:25;98803.19;;;37.06;84.13
50123;BME280;36021;48.670;6.184;2022-08-03T13:03:07;98800.28;;;38.12;80.27
50123;BME280;36021;48.670;6.184;2022-08-03T13:05:45;98807.81;;;38.42;73.96
50123;BME280;36021;48.670;6.184;2022-08-03T13:08:18;98814.97;;;39.56;74.94
50123;BME280;36021;48.670;6.184;2022-08-03T13:10:44;98805.59;;;40.20;69.87
50123;BME280;36021;48.670;6.184;2022-08-03T13:13:10;98805.44;;;41.70;67.46
50123;BME280;36021;48.670;6.184;2022-08-03T13:15:36;98803.16;;;42.85;59.27
50123;BME280;36021;48.670;6.184;2022-08-03T13:18:03;98795.38;;;43.07;61.61
50123;BME280;36021;48.670;6.184;2022-08-03T13:20:30;98802.88;;;43.42;58.54
50123;BME280;36021;48.670;6.184;2022-08-03T13:22:55;98795.94;;;45.47;52.79
50123;BME280;36021;48.670;6.184;2022-08-03T13:25:21;98793.97;;;46.85;49.12
50123;BME280;36021;48.670;6.184;2022-08-03T13:27:47;98786.56;;;45.65;53.23
50123;BME280;36021;48.670;6.184;2022-08-03T13:30:14;98794.13;;;46.44;48.14
50123;BME280;36021;48.670;6.184;2022-08-03T13:32:41;98785.34;;;45.49;52.42
50123;BME280;36021;48.670;6.184;2022-08-03T13:35:08;98783.38;;;46.28;47.95
50123;BME280;36021;48.670;6.184;2022-08-03T13:37:34;98780.75;;;44.22;51.60
50123;BME280;36021;48.670;6.184;2022-08-03T13:40:01;98773.41;;;46.48;47.15
50123;BME280;36021;48.670;6.184;2022-08-03T13:42:32;98771.91;;;47.27;46.50
50123;BME280;36021;48.670;6.184;2022-08-03T13:44:59;98771.59;;;48.84;44.46
50123;BME280;36021;48.670;6.184;2022-08-03T13:47:25;98770.78;;;48.57;43.10